Paivi — 5BGW2 — position and weather

sailwx.info

Track history (hours):
 
Tides and Currents Weather Stations Pressure Air Temp Water Temp Dewpoint Dewpoint Depression Visibility Wind Speed Wind Dir Waves Ship Positions

Paivi

Last reported at 2018-Jun-24 11:12 UTC. Time now 2018-Jun-25 09:33 UTC.
Position N 56°09' E 010°14'.

Length 82 m; draft 5.5 m.

Type: Cargo ship. MMSI: 212801000.

Date/timePositionNaut miles runAvg speedWind from/ knotsBaromVisibWave heightAir tempDewpointWater temp
2018-Jun-24 11:12N 56°09' E 010°14'3 4.6
2018-Jun-24 10:32N 56°08' E 010°19'123.1
2018-Jun-24 10:30N 56°08' E 010°20'67 9.7
2018-Jun-24 03:34N 56°11' E 012°21'3 9.8
2018-Jun-24 03:18N 56°10' E 012°25'310.3
2018-Jun-24 03:00N 56°08' E 012°30'510.2
2018-Jun-24 02:30N 56°05' E 012°36'510.1
2018-Jun-24 02:00N 56°01' E 012°41'510.0
2018-Jun-24 01:30N 55°56' E 012°44'510.0
2018-Jun-24 01:00N 55°51' E 012°43'510.3
2018-Jun-24 00:30N 55°46' E 012°42'510.3
2018-Jun-24 00:00N 55°41' E 012°41'510.1
2018-Jun-23 23:30N 55°35' E 012°42'5 9.8
2018-Jun-23 23:00N 55°31' E 012°43'510.6
2018-Jun-23 22:30N 55°25' E 012°42'510.8
2018-Jun-23 22:00N 55°20' E 012°41'34 9.7
2018-Jun-23 18:32N 55°14' E 013°39'111.0
2018-Jun-23 18:24N 55°14' E 013°42'610.9
2018-Jun-23 17:53N 55°14' E 013°52'510.7
2018-Jun-23 17:27N 55°13' E 013°60'510.9
2018-Jun-23 16:59N 55°13' E 014°09'510.6
2018-Jun-23 16:30N 55°14' E 014°18'510.9
2018-Jun-23 16:00N 55°18' E 014°24'610.8
2018-Jun-23 15:30N 55°23' E 014°30'510.5
2018-Jun-23 15:00N 55°27' E 014°36'510.9
2018-Jun-23 14:31N 55°28' E 014°45'510.9
2018-Jun-23 14:00N 55°30' E 014°54'510.9
2018-Jun-23 13:30N 55°31' E 015°03'610.9
2018-Jun-23 12:59N 55°33' E 015°13'  
2018-Jun-20 00:21N 55°09' E 019°41'410.1
2018-Jun-19 23:58N 55°05' E 019°38'4 9.5
2018-Jun-19 23:30N 55°01' E 019°37'5 9.5
2018-Jun-19 22:58N 54°56' E 019°37'5 9.6
2018-Jun-19 22:29N 54°51' E 019°37'5 9.6
2018-Jun-19 22:00N 54°47' E 019°36'6 7.9
2018-Jun-19 21:15N 54°42' E 019°43'3 8.5
2018-Jun-19 20:57N 54°41' E 019°47'12 0.3
2018-Jun-18 02:34N 54°40' E 020°09'0 0.0
2018-Jun-18 01:01N 54°40' E 020°09'0 0.0
2018-Jun-18 00:52N 54°40' E 020°09'0 0.0
2018-Jun-18 00:00N 54°40' E 020°09'0 0.0
2018-Jun-17 07:12N 54°41' E 020°09'0 0.0
2018-Jun-17 06:52N 54°41' E 020°09'0 0.0
2018-Jun-17 06:28N 54°41' E 020°09'0 0.0
2018-Jun-17 06:00N 54°41' E 020°09'0 0.0
2018-Jun-17 05:28N 54°41' E 020°09'0 0.0
2018-Jun-17 05:01N 54°41' E 020°09'0 0.0
2018-Jun-17 04:28N 54°41' E 020°09'0 0.0
2018-Jun-17 04:00N 54°41' E 020°09'0 0.0
2018-Jun-17 03:28N 54°41' E 020°09'0 0.0
2018-Jun-17 02:58N 54°41' E 020°09'0 0.0
2018-Jun-17 02:25N 54°41' E 020°09'0 0.0
2018-Jun-17 01:58N 54°41' E 020°09'0 0.0
2018-Jun-17 01:27N 54°41' E 020°09'0 0.0
2018-Jun-17 00:58N 54°41' E 020°09'0 0.0
2018-Jun-17 00:27N 54°41' E 020°09'0 0.0
2018-Jun-16 23:58N 54°41' E 020°09'0 0.0
2018-Jun-16 22:07N 54°41' E 020°09'0 0.0
2018-Jun-16 21:55N 54°41' E 020°09'0 0.0
2018-Jun-16 21:25N 54°41' E 020°09'0 0.0
2018-Jun-16 21:00N 54°41' E 020°09'0 0.0
2018-Jun-16 20:25N 54°41' E 020°09'0 0.0
2018-Jun-16 19:58N 54°41' E 020°09'0 0.0
2018-Jun-16 19:30N 54°41' E 020°09'0 0.0
2018-Jun-16 18:58N 54°41' E 020°09'0 0.0
2018-Jun-16 18:28N 54°41' E 020°09'0 0.0
2018-Jun-16 18:00N 54°41' E 020°09'0 0.0
2018-Jun-16 17:25N 54°41' E 020°09'0 0.0
2018-Jun-16 16:58N 54°41' E 020°09'0 0.0
2018-Jun-16 16:27N 54°41' E 020°09'0 0.0
2018-Jun-16 15:55N 54°41' E 020°09'0 0.0
2018-Jun-16 15:09N 54°41' E 020°09'0 0.0
2018-Jun-16 14:19N 54°41' E 020°09'0 0.0
2018-Jun-16 13:39N 54°41' E 020°09'0 0.0
2018-Jun-16 13:22N 54°41' E 020°09'0 0.0
2018-Jun-16 12:55N 54°41' E 020°09'0 0.0
2018-Jun-16 12:28N 54°41' E 020°09'0 0.0
2018-Jun-16 11:55N 54°41' E 020°09'0 0.0
2018-Jun-16 01:37N 54°41' E 020°09'0 0.0
2018-Jun-16 01:25N 54°41' E 020°09'0 0.0
2018-Jun-16 01:01N 54°41' E 020°09'0 0.0
2018-Jun-16 00:16N 54°41' E 020°09'0 0.0
2018-Jun-15 23:31N 54°41' E 020°09'0 0.0
2018-Jun-15 22:25N 54°41' E 020°09'0 0.0
2018-Jun-15 21:55N 54°41' E 020°09'0 0.0
2018-Jun-15 21:31N 54°41' E 020°09'0 0.0
2018-Jun-15 18:34N 54°41' E 020°09'0 0.0
2018-Jun-15 18:25N 54°41' E 020°09'0 0.0
2018-Jun-15 17:13N 54°41' E 020°09'0 0.0
2018-Jun-15 17:01N 54°41' E 020°09'0 0.0
2018-Jun-15 16:24N 54°41' E 020°09'0 0.0
2018-Jun-15 15:43N 54°41' E 020°09'0 0.0
2018-Jun-15 15:16N 54°41' E 020°09'0 0.0
2018-Jun-15 14:49N 54°41' E 020°09'0 0.0
2018-Jun-15 14:28N 54°41' E 020°09'  
Track history (hours):
 
Tides and Currents Weather Stations Pressure Air Temp Water Temp Dewpoint Dewpoint Depression Visibility Wind Speed Wind Dir Waves Ship Positions

Paivi

Last reported at 2018-Jun-24 11:12 UTC. Time now 2018-Jun-25 09:33 UTC.
Position N 56°09' E 010°14'.

Length 82 m; draft 5.5 m.

Type: Cargo ship. MMSI: 212801000.

Date/timePositionNaut miles runAvg speedWind from/ knotsBaromVisibWave heightAir tempDewpointWater temp
2018-Jun-24 11:12N 56°09' E 010°14'3 4.6
2018-Jun-24 10:32N 56°08' E 010°19'123.1
2018-Jun-24 10:30N 56°08' E 010°20'67 9.7
2018-Jun-24 03:34N 56°11' E 012°21'3 9.8
2018-Jun-24 03:18N 56°10' E 012°25'310.3
2018-Jun-24 03:00N 56°08' E 012°30'510.2
2018-Jun-24 02:30N 56°05' E 012°36'510.1
2018-Jun-24 02:00N 56°01' E 012°41'510.0
2018-Jun-24 01:30N 55°56' E 012°44'510.0
2018-Jun-24 01:00N 55°51' E 012°43'510.3
2018-Jun-24 00:30N 55°46' E 012°42'510.3
2018-Jun-24 00:00N 55°41' E 012°41'510.1
2018-Jun-23 23:30N 55°35' E 012°42'5 9.8
2018-Jun-23 23:00N 55°31' E 012°43'510.6
2018-Jun-23 22:30N 55°25' E 012°42'510.8
2018-Jun-23 22:00N 55°20' E 012°41'34 9.7
2018-Jun-23 18:32N 55°14' E 013°39'111.0
2018-Jun-23 18:24N 55°14' E 013°42'610.9
2018-Jun-23 17:53N 55°14' E 013°52'510.7
2018-Jun-23 17:27N 55°13' E 013°60'510.9
2018-Jun-23 16:59N 55°13' E 014°09'510.6
2018-Jun-23 16:30N 55°14' E 014°18'510.9
2018-Jun-23 16:00N 55°18' E 014°24'610.8
2018-Jun-23 15:30N 55°23' E 014°30'510.5
2018-Jun-23 15:00N 55°27' E 014°36'510.9
2018-Jun-23 14:31N 55°28' E 014°45'510.9
2018-Jun-23 14:00N 55°30' E 014°54'510.9
2018-Jun-23 13:30N 55°31' E 015°03'610.9
2018-Jun-23 12:59N 55°33' E 015°13'  
2018-Jun-20 00:21N 55°09' E 019°41'410.1
2018-Jun-19 23:58N 55°05' E 019°38'4 9.5
2018-Jun-19 23:30N 55°01' E 019°37'5 9.5
2018-Jun-19 22:58N 54°56' E 019°37'5 9.6
2018-Jun-19 22:29N 54°51' E 019°37'5 9.6
2018-Jun-19 22:00N 54°47' E 019°36'6 7.9
2018-Jun-19 21:15N 54°42' E 019°43'3 8.5
2018-Jun-19 20:57N 54°41' E 019°47'12 0.3
2018-Jun-18 02:34N 54°40' E 020°09'0 0.0
2018-Jun-18 01:01N 54°40' E 020°09'0 0.0
2018-Jun-18 00:52N 54°40' E 020°09'0 0.0
2018-Jun-18 00:00N 54°40' E 020°09'0 0.0
2018-Jun-17 07:12N 54°41' E 020°09'0 0.0
2018-Jun-17 06:52N 54°41' E 020°09'0 0.0
2018-Jun-17 06:28N 54°41' E 020°09'0 0.0
2018-Jun-17 06:00N 54°41' E 020°09'0 0.0
2018-Jun-17 05:28N 54°41' E 020°09'0 0.0
2018-Jun-17 05:01N 54°41' E 020°09'0 0.0
2018-Jun-17 04:28N 54°41' E 020°09'0 0.0
2018-Jun-17 04:00N 54°41' E 020°09'0 0.0
2018-Jun-17 03:28N 54°41' E 020°09'0 0.0
2018-Jun-17 02:58N 54°41' E 020°09'0 0.0
2018-Jun-17 02:25N 54°41' E 020°09'0 0.0
2018-Jun-17 01:58N 54°41' E 020°09'0 0.0
2018-Jun-17 01:27N 54°41' E 020°09'0 0.0
2018-Jun-17 00:58N 54°41' E 020°09'0 0.0
2018-Jun-17 00:27N 54°41' E 020°09'0 0.0
2018-Jun-16 23:58N 54°41' E 020°09'0 0.0
2018-Jun-16 22:07N 54°41' E 020°09'0 0.0
2018-Jun-16 21:55N 54°41' E 020°09'0 0.0
2018-Jun-16 21:25N 54°41' E 020°09'0 0.0
2018-Jun-16 21:00N 54°41' E 020°09'0 0.0
2018-Jun-16 20:25N 54°41' E 020°09'0 0.0
2018-Jun-16 19:58N 54°41' E 020°09'0 0.0
2018-Jun-16 19:30N 54°41' E 020°09'0 0.0
2018-Jun-16 18:58N 54°41' E 020°09'0 0.0
2018-Jun-16 18:28N 54°41' E 020°09'0 0.0
2018-Jun-16 18:00N 54°41' E 020°09'0 0.0
2018-Jun-16 17:25N 54°41' E 020°09'0 0.0
2018-Jun-16 16:58N 54°41' E 020°09'0 0.0
2018-Jun-16 16:27N 54°41' E 020°09'0 0.0
2018-Jun-16 15:55N 54°41' E 020°09'0 0.0
2018-Jun-16 15:09N 54°41' E 020°09'0 0.0
2018-Jun-16 14:19N 54°41' E 020°09'0 0.0
2018-Jun-16 13:39N 54°41' E 020°09'0 0.0
2018-Jun-16 13:22N 54°41' E 020°09'0 0.0
2018-Jun-16 12:55N 54°41' E 020°09'0 0.0
2018-Jun-16 12:28N 54°41' E 020°09'0 0.0
2018-Jun-16 11:55N 54°41' E 020°09'0 0.0
2018-Jun-16 01:37N 54°41' E 020°09'0 0.0
2018-Jun-16 01:25N 54°41' E 020°09'0 0.0
2018-Jun-16 01:01N 54°41' E 020°09'0 0.0
2018-Jun-16 00:16N 54°41' E 020°09'0 0.0
2018-Jun-15 23:31N 54°41' E 020°09'0 0.0
2018-Jun-15 22:25N 54°41' E 020°09'0 0.0
2018-Jun-15 21:55N 54°41' E 020°09'0 0.0
2018-Jun-15 21:31N 54°41' E 020°09'0 0.0
2018-Jun-15 18:34N 54°41' E 020°09'0 0.0
2018-Jun-15 18:25N 54°41' E 020°09'0 0.0
2018-Jun-15 17:13N 54°41' E 020°09'0 0.0
2018-Jun-15 17:01N 54°41' E 020°09'0 0.0
2018-Jun-15 16:24N 54°41' E 020°09'0 0.0
2018-Jun-15 15:43N 54°41' E 020°09'0 0.0
2018-Jun-15 15:16N 54°41' E 020°09'0 0.0
2018-Jun-15 14:49N 54°41' E 020°09'0 0.0
2018-Jun-15 14:28N 54°41' E 020°09'  

Dump ship's entire track history